createdAt,value
2022-11-04T00:01:05.084Z,87.18
2022-11-04T00:03:06.930Z,86.95
2022-11-04T00:05:08.836Z,86.38
2022-11-04T00:07:10.277Z,87.12
2022-11-04T00:09:15.746Z,86.70
2022-11-04T00:11:18.021Z,87.61
2022-11-04T00:13:20.899Z,88.04
2022-11-04T00:15:22.349Z,87.14
2022-11-04T00:17:23.795Z,87.12
2022-11-04T00:19:25.345Z,87.81
2022-11-04T00:21:27.096Z,87.74
2022-11-04T00:23:28.544Z,88.24
2022-11-04T00:25:30.125Z,87.92
2022-11-04T00:27:31.653Z,88.42
2022-11-04T00:29:34.550Z,88.39
2022-11-04T00:31:35.974Z,88.23
2022-11-04T00:33:37.429Z,87.75
2022-11-04T00:35:38.924Z,88.16
2022-11-04T00:37:42.358Z,88.06
2022-11-04T00:39:45.026Z,88.00
2022-11-04T00:41:46.471Z,88.11
2022-11-04T00:43:47.919Z,86.55
2022-11-04T00:45:50.730Z,86.93
2022-11-04T00:47:52.158Z,87.78
2022-11-04T00:49:53.966Z,86.96
2022-11-04T00:51:55.441Z,87.28
2022-11-04T00:53:56.970Z,87.70
2022-11-04T00:55:59.183Z,87.01
2022-11-04T00:58:00.665Z,87.05
2022-11-04T01:00:02.167Z,87.43
2022-11-04T01:02:05.604Z,87.44
2022-11-04T01:04:07.247Z,88.11
2022-11-04T01:06:08.762Z,87.62
2022-11-04T01:08:10.227Z,86.06
2022-11-04T01:10:11.698Z,86.79
2022-11-04T01:12:13.205Z,87.07
2022-11-04T01:14:15.340Z,86.98
2022-11-04T01:16:17.407Z,86.78
2022-11-04T01:18:20.824Z,86.46
2022-11-04T01:20:22.346Z,86.42
2022-11-04T01:22:23.911Z,86.17
2022-11-04T01:24:25.587Z,86.92
2022-11-04T01:26:28.739Z,86.39
2022-11-04T01:28:30.248Z,86.44
2022-11-04T01:30:31.732Z,86.08
2022-11-04T01:32:33.192Z,86.73
2022-11-04T01:34:40.606Z,86.16
2022-11-04T01:36:44.867Z,86.21
2022-11-04T01:38:46.968Z,86.28
2022-11-04T01:40:48.444Z,85.61
2022-11-04T01:42:49.911Z,86.22
2022-11-04T01:44:56.567Z,86.52
2022-11-04T01:46:58.616Z,87.35
2022-11-04T01:49:05.996Z,86.17
2022-11-04T01:51:08.872Z,86.00
2022-11-04T01:53:15.297Z,86.59
2022-11-04T01:55:20.924Z,86.99
2022-11-04T01:57:28.780Z,87.18
2022-11-04T01:59:34.754Z,86.83
2022-11-04T02:01:36.381Z,86.70
2022-11-04T02:03:43.843Z,86.90
2022-11-04T02:05:46.355Z,87.13
2022-11-04T02:07:52.712Z,86.59
2022-11-04T02:09:55.040Z,86.25
2022-11-04T02:11:56.815Z,85.61
2022-11-04T02:13:58.578Z,85.62
2022-11-04T02:16:10.947Z,85.50
2022-11-04T02:18:31.739Z,85.25
2022-11-04T02:20:52.595Z,85.54
2022-11-04T02:23:22.958Z,85.95
2022-11-04T02:25:37.574Z,86.01
2022-11-04T02:27:51.190Z,85.95
2022-11-04T02:30:09.688Z,86.39
2022-11-04T02:32:18.640Z,85.81
2022-11-04T02:34:25.820Z,86.15
2022-11-04T02:36:32.851Z,86.35
2022-11-04T02:38:41.895Z,86.13
2022-11-04T02:40:50.136Z,86.08
2022-11-04T02:42:58.543Z,86.16
2022-11-04T02:45:12.938Z,85.94
2022-11-04T02:47:17.373Z,86.57
2022-11-04T02:49:24.143Z,86.64
2022-11-04T02:51:29.266Z,86.36
2022-11-04T02:53:36.274Z,87.23
2022-11-04T02:55:41.727Z,86.60
2022-11-04T02:57:47.334Z,87.03
2022-11-04T02:59:53.789Z,86.58
2022-11-04T03:01:59.082Z,86.83
2022-11-04T03:04:05.006Z,86.98
2022-11-04T03:06:10.328Z,87.31
2022-11-04T03:08:16.436Z,86.68
2022-11-04T03:10:22.726Z,87.35
2022-11-04T03:12:29.614Z,87.86
2022-11-04T03:14:37.442Z,87.56
2022-11-04T03:16:44.751Z,88.23
2022-11-04T03:18:54.567Z,88.19
2022-11-04T03:21:01.350Z,89.05
2022-11-04T03:23:03.084Z,89.06
2022-11-04T03:25:07.636Z,88.84
2022-11-04T03:27:19.450Z,89.00
2022-11-04T03:29:26.162Z,89.49
2022-11-04T03:31:37.227Z,89.13
2022-11-04T03:33:43.622Z,88.86
2022-11-04T03:35:46.710Z,88.79
2022-11-04T03:37:48.904Z,89.04
2022-11-04T03:39:50.436Z,89.13
2022-11-04T03:41:55.481Z,89.98
2022-11-04T03:43:57.046Z,90.10
2022-11-04T03:45:58.561Z,89.24
2022-11-04T03:48:00.819Z,89.16
2022-11-04T03:50:07.052Z,89.42
2022-11-04T03:52:09.943Z,88.43
2022-11-04T03:54:11.565Z,88.67
2022-11-04T03:56:29.237Z,89.32
2022-11-04T03:58:41.161Z,88.61
2022-11-04T04:00:49.999Z,88.75
2022-11-04T04:03:06.891Z,88.28
2022-11-04T04:05:18.691Z,88.35
2022-11-04T04:07:28.744Z,87.98
2022-11-04T04:09:35.765Z,89.03
2022-11-04T04:11:45.121Z,88.87
2022-11-04T04:13:52.208Z,89.36
2022-11-04T04:15:58.962Z,88.74
2022-11-04T04:18:05.124Z,89.00
2022-11-04T04:20:12.451Z,89.50
2022-11-04T04:22:17.002Z,88.66
2022-11-04T04:24:25.185Z,89.10
2022-11-04T04:26:28.643Z,88.85
2022-11-04T04:28:30.406Z,89.59
2022-11-04T04:30:32.187Z,89.35
2022-11-04T04:32:38.013Z,88.99
2022-11-04T04:34:39.881Z,89.27
2022-11-04T04:36:46.105Z,89.15
2022-11-04T04:38:47.728Z,89.37
2022-11-04T04:40:54.463Z,89.18
2022-11-04T04:42:56.142Z,89.19
2022-11-04T04:44:57.705Z,89.87
2022-11-04T04:47:02.335Z,88.83
2022-11-04T04:49:05.793Z,89.48
2022-11-04T04:51:07.800Z,88.93
2022-11-04T04:53:09.734Z,89.06
2022-11-04T04:55:12.818Z,89.73
2022-11-04T04:57:15.917Z,90.20
2022-11-04T04:59:17.586Z,90.00
2022-11-04T05:01:19.237Z,89.81
2022-11-04T05:03:20.784Z,90.47
2022-11-04T05:05:22.864Z,90.03
2022-11-04T05:07:24.708Z,90.06
2022-11-04T05:09:26.178Z,90.22
2022-11-04T05:11:27.674Z,90.64
2022-11-04T05:13:30.594Z,91.03
2022-11-04T05:15:32.304Z,90.64
2022-11-04T05:17:33.771Z,89.80
2022-11-04T05:19:35.459Z,89.95
2022-11-04T05:21:41.092Z,89.11
2022-11-04T05:23:42.542Z,90.21
2022-11-04T05:25:44.028Z,90.30
2022-11-04T05:27:45.488Z,90.47
2022-11-04T05:29:48.263Z,90.61
2022-11-04T05:31:49.798Z,91.17
2022-11-04T05:33:51.250Z,91.24
2022-11-04T05:35:52.761Z,91.15
2022-11-04T05:37:55.301Z,91.26
2022-11-04T05:39:56.773Z,91.34
2022-11-04T05:41:58.259Z,91.29
2022-11-04T05:44:01.427Z,91.04
2022-11-04T05:46:04.430Z,90.93
2022-11-04T05:48:06.143Z,89.96
2022-11-04T05:50:08.317Z,90.48
2022-11-04T05:52:09.808Z,89.54
2022-11-04T05:54:11.343Z,89.74
2022-11-04T05:56:12.986Z,89.79
2022-11-04T05:58:14.489Z,89.95
2022-11-04T06:00:16.611Z,90.24
2022-11-04T06:02:19.531Z,90.89
2022-11-04T06:04:21.118Z,89.53
2022-11-04T06:06:24.056Z,90.16
2022-11-04T06:08:25.531Z,90.61
2022-11-04T06:10:27.175Z,89.85
2022-11-04T06:12:28.689Z,90.79
2022-11-04T06:14:30.160Z,90.42
2022-11-04T06:16:31.668Z,89.52
2022-11-04T06:18:34.651Z,89.10
2022-11-04T06:20:36.135Z,88.95
2022-11-04T06:22:37.635Z,88.44
2022-11-04T06:24:39.315Z,89.27
2022-11-04T06:26:40.840Z,88.36
2022-11-04T06:28:42.388Z,88.00
2022-11-04T06:30:43.861Z,87.55
2022-11-04T06:32:45.388Z,87.67
2022-11-04T06:34:48.200Z,87.38
2022-11-04T06:36:50.579Z,87.67
2022-11-04T06:38:52.214Z,88.82
2022-11-04T06:40:53.727Z,87.83
2022-11-04T06:42:55.215Z,88.39
2022-11-04T06:44:56.715Z,88.29
2022-11-04T06:46:58.192Z,87.78
2022-11-04T06:48:59.683Z,87.43
2022-11-04T06:51:02.510Z,87.02
2022-11-04T06:53:04.009Z,87.13
2022-11-04T06:55:06.836Z,87.59
2022-11-04T06:57:10.501Z,87.04
2022-11-04T06:59:15.655Z,87.59
2022-11-04T07:01:21.835Z,87.67
2022-11-04T07:03:23.876Z,87.66
2022-11-04T07:05:26.325Z,87.25
2022-11-04T07:07:30.869Z,88.11
2022-11-04T07:09:32.403Z,86.56
2022-11-04T07:11:33.923Z,87.11
2022-11-04T07:13:35.375Z,87.58
2022-11-04T07:15:38.376Z,87.37
2022-11-04T07:17:39.862Z,87.17
2022-11-04T07:19:41.351Z,86.64
2022-11-04T07:21:42.856Z,86.87
2022-11-04T07:23:45.808Z,86.88
2022-11-04T07:25:47.281Z,86.34
2022-11-04T07:27:48.817Z,86.06
2022-11-04T07:29:50.299Z,84.88
2022-11-04T07:31:51.810Z,84.65
2022-11-04T07:33:53.670Z,85.13
2022-11-04T07:35:58.222Z,83.19
2022-11-04T07:38:00.041Z,82.89
2022-11-04T07:40:03.321Z,82.57
2022-11-04T07:42:07.004Z,81.89
2022-11-04T07:44:11.207Z,81.51
2022-11-04T07:46:13.067Z,82.14
2022-11-04T07:48:14.555Z,82.04
2022-11-04T07:50:16.095Z,81.80
2022-11-04T07:52:17.636Z,82.66
2022-11-04T07:54:19.116Z,83.31
2022-11-04T07:56:21.995Z,83.83
2022-11-04T07:58:24.177Z,82.23
2022-11-04T08:00:25.675Z,82.06
2022-11-04T08:02:32.490Z,82.27
2022-11-04T08:04:36.451Z,81.52
2022-11-04T08:06:37.960Z,78.99
2022-11-04T08:08:39.518Z,79.88
2022-11-04T08:10:41.080Z,78.78
2022-11-04T08:12:43.924Z,78.63
2022-11-04T08:14:45.426Z,78.39
2022-11-04T08:16:50.307Z,78.09
2022-11-04T08:18:52.351Z,77.05
2022-11-04T08:20:53.912Z,78.00
2022-11-04T08:22:55.386Z,77.59
2022-11-04T08:24:56.857Z,78.61
2022-11-04T08:26:58.867Z,79.27
2022-11-04T08:29:05.326Z,79.70
2022-11-04T08:31:09.396Z,79.17
2022-11-04T08:33:11.263Z,78.78
2022-11-04T08:35:12.894Z,78.69
2022-11-04T08:37:14.507Z,77.58
2022-11-04T08:39:15.986Z,77.04
2022-11-04T08:41:21.148Z,78.50
2022-11-04T08:43:22.730Z,79.29
2022-11-04T08:45:28.775Z,79.09
2022-11-04T08:47:32.743Z,80.51
2022-11-04T08:49:37.971Z,79.46
2022-11-04T08:51:42.587Z,80.56
2022-11-04T08:53:44.159Z,80.11
2022-11-04T08:55:45.852Z,78.71
2022-11-04T08:57:47.325Z,78.81
2022-11-04T08:59:48.814Z,79.24
2022-11-04T09:01:51.755Z,77.36
2022-11-04T09:03:53.333Z,78.74
2022-11-04T09:05:57.833Z,77.43
2022-11-04T09:07:59.381Z,77.85
2022-11-04T09:10:00.973Z,77.27
2022-11-04T09:12:02.493Z,76.22
2022-11-04T09:14:04.394Z,75.61
2022-11-04T09:16:07.259Z,76.24
2022-11-04T09:18:10.574Z,76.79
2022-11-04T09:20:12.153Z,75.59
2022-11-04T09:22:13.632Z,76.92
2022-11-04T09:24:15.105Z,77.67
2022-11-04T09:26:17.098Z,76.61
2022-11-04T09:28:18.641Z,75.81
2022-11-04T09:30:20.189Z,75.73
2022-11-04T09:32:21.699Z,77.05
2022-11-04T09:34:24.518Z,76.51
2022-11-04T09:36:26.026Z,76.22
2022-11-04T09:38:27.677Z,76.60
2022-11-04T09:40:29.571Z,76.17
2022-11-04T09:42:46.485Z,75.64
2022-11-04T09:45:19.457Z,74.08
2022-11-04T09:47:15.703Z,74.11
2022-11-04T09:49:20.961Z,73.08
2022-11-04T09:51:52.542Z,73.88
2022-11-04T09:53:50.743Z,74.89
2022-11-04T09:55:55.607Z,75.54
2022-11-04T09:57:58.332Z,75.89
2022-11-04T10:00:00.368Z,76.17
2022-11-04T10:02:22.045Z,74.47
2022-11-04T10:04:33.079Z,75.55
2022-11-04T10:06:50.564Z,75.89
2022-11-04T10:09:04.007Z,76.22
2022-11-04T10:11:10.484Z,75.08
2022-11-04T10:13:24.086Z,75.56
2022-11-04T10:15:47.774Z,75.25
2022-11-04T10:18:03.152Z,74.39
2022-11-04T10:20:21.504Z,73.62
2022-11-04T10:22:31.513Z,73.50
2022-11-04T10:24:41.584Z,72.50
2022-11-04T10:26:45.748Z,73.10
2022-11-04T10:28:52.045Z,73.62
2022-11-04T10:30:53.538Z,73.38
2022-11-04T10:33:03.144Z,72.74
2022-11-04T10:35:15.871Z,74.30
2022-11-04T10:37:17.682Z,74.59
2022-11-04T10:39:27.267Z,73.91
2022-11-04T10:41:33.265Z,75.03
2022-11-04T10:43:37.012Z,73.12
2022-11-04T10:45:43.953Z,71.50
2022-11-04T10:47:51.693Z,71.54
2022-11-04T10:50:32.420Z,72.20
2022-11-04T10:52:35.023Z,70.17
2022-11-04T10:54:40.395Z,71.99
2022-11-04T10:56:44.961Z,71.50
2022-11-04T10:58:47.793Z,69.15
2022-11-04T11:00:49.763Z,69.60
2022-11-04T11:02:51.294Z,67.83
2022-11-04T11:05:13.292Z,68.50
2022-11-04T11:07:16.344Z,66.24
2022-11-04T11:09:21.738Z,66.95
2022-11-04T11:11:40.579Z,66.83
2022-11-04T11:13:43.837Z,67.71
2022-11-04T11:15:45.323Z,67.28
2022-11-04T11:17:46.944Z,67.08
2022-11-04T11:19:54.210Z,66.94
2022-11-04T11:21:56.998Z,68.66
2022-11-04T11:24:14.637Z,69.00
2022-11-04T11:26:18.774Z,67.88
2022-11-04T11:28:24.534Z,67.84
2022-11-04T11:30:28.931Z,67.31
2022-11-04T11:32:33.917Z,67.05
2022-11-04T11:34:39.123Z,66.81
2022-11-04T11:36:42.393Z,66.43
2022-11-04T11:39:02.920Z,65.46
2022-11-04T11:43:34.183Z,66.67
2022-11-04T11:45:36.562Z,67.23
2022-11-04T11:47:38.022Z,65.56
2022-11-04T11:49:39.519Z,64.61
2022-11-04T11:51:41.086Z,65.91
2022-11-04T11:54:01.619Z,66.55
2022-11-04T11:56:14.786Z,66.12
2022-11-04T12:01:00.714Z,65.44
2022-11-04T12:03:15.432Z,65.87
2022-11-04T12:10:44.646Z,66.48
2022-11-04T12:12:57.367Z,66.63
2022-11-04T12:17:51.913Z,67.83
2022-11-04T12:20:02.827Z,67.54
2022-11-04T12:22:13.998Z,66.40
2022-11-04T12:24:27.953Z,66.72
2022-11-04T12:26:36.753Z,66.80
2022-11-04T12:28:50.878Z,67.74
2022-11-04T12:31:04.451Z,67.86
2022-11-04T12:33:20.092Z,67.83
2022-11-04T12:35:32.723Z,68.43
2022-11-04T12:37:44.810Z,69.43
2022-11-04T12:40:03.333Z,67.97
2022-11-04T12:42:22.319Z,68.46
2022-11-04T12:44:32.131Z,69.87
2022-11-04T12:46:41.892Z,70.01
2022-11-04T12:49:07.372Z,70.14
2022-11-04T12:51:12.821Z,70.59
2022-11-04T12:53:34.258Z,69.98
2022-11-04T12:55:45.428Z,70.66
2022-11-04T12:57:54.701Z,71.50
2022-11-04T13:00:08.900Z,70.89
2022-11-04T13:02:17.625Z,70.79
2022-11-04T13:04:23.697Z,70.05
2022-11-04T13:06:31.056Z,70.63
2022-11-04T13:08:39.006Z,69.30
2022-11-04T13:10:47.715Z,69.10
2022-11-04T13:12:52.459Z,68.95
2022-11-04T13:14:59.032Z,69.32
2022-11-04T13:17:05.125Z,68.56
2022-11-04T13:19:25.573Z,69.90
2022-11-04T13:21:31.203Z,68.48
2022-11-04T13:23:39.906Z,68.58
2022-11-04T13:25:44.430Z,67.73
2022-11-04T13:27:47.649Z,68.28
2022-11-04T13:29:55.083Z,68.78
2022-11-04T13:32:05.498Z,69.53
2022-11-04T13:34:19.108Z,67.62
2022-11-04T13:36:33.566Z,69.38
2022-11-04T13:38:39.115Z,68.36
2022-11-04T13:40:52.255Z,69.21
2022-11-04T13:43:20.033Z,69.64
2022-11-04T13:45:21.613Z,68.90
2022-11-04T13:47:29.249Z,69.32
2022-11-04T13:49:32.753Z,69.41
2022-11-04T13:51:39.482Z,69.78
2022-11-04T13:53:44.168Z,68.98
2022-11-04T13:55:48.920Z,70.06
2022-11-04T13:57:53.838Z,69.63
2022-11-04T14:00:22.744Z,69.04
2022-11-04T14:02:40.675Z,69.38
2022-11-04T14:04:44.231Z,70.63
2022-11-04T14:06:53.887Z,69.99
2022-11-04T14:09:31.770Z,71.21
2022-11-04T14:12:11.836Z,70.04
2022-11-04T14:14:19.185Z,70.45
2022-11-04T14:16:41.570Z,71.07
2022-11-04T14:18:44.364Z,71.09
2022-11-04T14:21:02.852Z,70.85
2022-11-04T14:23:20.282Z,71.04
2022-11-04T14:25:26.962Z,71.33
2022-11-04T14:27:37.606Z,71.11
2022-11-04T14:29:39.135Z,71.58
2022-11-04T14:31:45.132Z,71.60
2022-11-04T14:33:51.756Z,72.63
2022-11-04T14:35:56.109Z,72.37
2022-11-04T14:38:22.556Z,72.62
2022-11-04T14:40:27.422Z,73.06
2022-11-04T14:42:44.210Z,73.81
2022-11-04T14:44:50.032Z,74.04
2022-11-04T14:46:55.924Z,74.47
2022-11-04T14:48:59.163Z,74.91
2022-11-04T14:51:00.899Z,74.39
2022-11-04T14:53:04.168Z,75.35
2022-11-04T14:55:13.316Z,74.49
2022-11-04T14:57:17.097Z,75.65
2022-11-04T14:59:23.423Z,74.58
2022-11-04T15:01:31.255Z,75.13
2022-11-04T15:06:01.247Z,75.50
2022-11-04T15:08:03.418Z,76.10
2022-11-04T15:10:20.249Z,76.34
2022-11-04T15:12:21.724Z,76.51
2022-11-04T15:14:25.269Z,75.35
2022-11-04T15:16:29.996Z,75.68
2022-11-04T15:18:31.751Z,77.00
2022-11-04T15:20:38.058Z,76.57
2022-11-04T15:22:42.801Z,77.10
2022-11-04T15:24:44.806Z,76.59
2022-11-04T15:26:51.964Z,76.60
2022-11-04T15:28:54.358Z,77.46
2022-11-04T15:31:07.174Z,77.15
2022-11-04T15:33:17.392Z,77.16
2022-11-04T15:35:19.350Z,77.78
2022-11-04T15:37:22.375Z,78.08
2022-11-04T15:39:26.633Z,76.72
2022-11-04T15:41:35.721Z,77.32
2022-11-04T15:43:41.209Z,77.66
2022-11-04T15:45:50.693Z,78.82
2022-11-04T15:48:26.143Z,78.89
2022-11-04T15:50:30.837Z,79.58
2022-11-04T15:52:32.363Z,77.90
2022-11-04T15:54:36.453Z,78.32
2022-11-04T15:56:41.959Z,78.24
2022-11-04T15:58:45.468Z,79.79
2022-11-04T16:00:52.817Z,79.82
2022-11-04T16:02:56.896Z,80.24
2022-11-04T16:05:04.007Z,80.24
2022-11-04T16:07:21.280Z,80.63
2022-11-04T16:09:27.133Z,80.29
2022-11-04T16:11:28.802Z,80.55
2022-11-04T16:13:30.436Z,80.25
2022-11-04T16:15:36.449Z,79.83
2022-11-04T16:17:44.047Z,80.99
2022-11-04T16:19:48.757Z,81.52
2022-11-04T16:21:59.340Z,81.17
2022-11-04T16:26:36.389Z,81.54
2022-11-04T16:28:39.326Z,80.66
2022-11-04T16:30:55.849Z,79.83
2022-11-04T16:33:08.616Z,80.10
2022-11-04T16:35:19.084Z,79.85
2022-11-04T16:37:20.564Z,79.57
2022-11-04T16:39:22.060Z,79.70
2022-11-04T16:41:24.629Z,80.55
2022-11-04T16:43:26.098Z,79.76
2022-11-04T16:45:31.492Z,79.67
2022-11-04T16:47:38.405Z,79.74
2022-11-04T16:49:39.913Z,80.90
2022-11-04T16:51:41.772Z,80.61
2022-11-04T16:53:43.253Z,80.15
2022-11-04T16:55:45.167Z,80.27
2022-11-04T16:57:50.857Z,81.63
2022-11-04T16:59:52.340Z,81.17
2022-11-04T17:01:53.934Z,81.75
2022-11-04T17:03:56.872Z,81.58
2022-11-04T17:05:58.799Z,81.80
2022-11-04T17:10:28.435Z,83.03
2022-11-04T17:12:29.891Z,83.36
2022-11-04T17:14:31.384Z,82.60
2022-11-04T17:16:32.919Z,82.63
2022-11-04T17:18:34.633Z,82.57
2022-11-04T17:20:39.846Z,82.07
2022-11-04T17:22:41.492Z,82.60
2022-11-04T17:24:42.984Z,82.37
2022-11-04T17:26:44.450Z,82.37
2022-11-04T17:28:45.950Z,82.42
2022-11-04T17:30:47.469Z,82.15
2022-11-04T17:32:49.862Z,81.79
2022-11-04T17:34:51.357Z,82.08
2022-11-04T17:36:54.322Z,82.60
2022-11-04T17:38:56.118Z,82.34
2022-11-04T17:40:57.604Z,82.91
2022-11-04T17:42:59.072Z,83.27
2022-11-04T17:45:00.543Z,82.58
2022-11-04T17:47:02.089Z,82.83
2022-11-04T17:49:07.043Z,83.47
2022-11-04T17:51:08.788Z,83.16
2022-11-04T17:53:11.986Z,83.47
2022-11-04T17:55:17.934Z,83.59
2022-11-04T17:57:25.318Z,84.58
2022-11-04T17:59:30.098Z,82.97
2022-11-04T18:01:35.983Z,83.17
2022-11-04T18:03:37.567Z,83.10
2022-11-04T18:05:39.052Z,83.83
2022-11-04T18:07:40.520Z,82.21
2022-11-04T18:09:43.385Z,83.27
2022-11-04T18:11:45.858Z,83.29
2022-11-04T18:13:47.356Z,82.48
2022-11-04T18:15:48.936Z,81.90
2022-11-04T18:17:50.422Z,82.37
2022-11-04T18:19:51.950Z,82.19
2022-11-04T18:21:53.554Z,82.00
2022-11-04T18:23:55.611Z,82.55
2022-11-04T18:25:58.616Z,81.53
2022-11-04T18:28:00.064Z,82.54
2022-11-04T18:30:01.570Z,82.27
2022-11-04T18:32:03.335Z,83.04
2022-11-04T18:34:06.437Z,83.80
2022-11-04T18:36:08.867Z,83.06
2022-11-04T18:38:10.372Z,83.34
2022-11-04T18:40:12.336Z,82.67
2022-11-04T18:42:15.150Z,81.87
2022-11-04T18:44:18.983Z,82.90
2022-11-04T18:46:20.427Z,83.05
2022-11-04T18:48:22.000Z,82.51
2022-11-04T18:50:23.475Z,83.01
2022-11-04T18:52:24.981Z,82.78
2022-11-04T18:54:26.471Z,83.14
2022-11-04T18:56:27.967Z,82.86
2022-11-04T18:58:32.355Z,84.09
2022-11-04T19:00:33.815Z,84.33
2022-11-04T19:02:35.397Z,84.89
2022-11-04T19:04:36.880Z,85.10
2022-11-04T19:06:41.475Z,83.79
2022-11-04T19:08:46.716Z,84.94
2022-11-04T19:11:00.550Z,84.35
2022-11-04T19:13:02.860Z,84.98
2022-11-04T19:15:07.139Z,84.87
2022-11-04T19:17:08.630Z,85.30
2022-11-04T19:19:14.757Z,85.81
2022-11-04T19:21:18.528Z,85.55
2022-11-04T19:23:20.041Z,84.53
2022-11-04T19:25:21.527Z,85.35
2022-11-04T19:27:23.032Z,86.01
2022-11-04T19:29:24.603Z,86.63
2022-11-04T19:31:29.385Z,87.43
2022-11-04T19:33:30.981Z,86.88
2022-11-04T19:35:32.494Z,87.52
2022-11-04T19:37:34.012Z,86.90
2022-11-04T19:39:35.472Z,87.64
2022-11-04T19:41:37.698Z,87.66
2022-11-04T19:43:39.193Z,87.50
2022-11-04T19:45:43.702Z,88.01
2022-11-04T19:47:46.597Z,88.25
2022-11-04T19:49:48.111Z,87.11
2022-11-04T19:51:50.122Z,88.20
2022-11-04T19:53:51.631Z,88.67
2022-11-04T19:55:55.008Z,87.28
2022-11-04T19:57:56.589Z,88.39
2022-11-04T19:59:58.092Z,88.30
2022-11-04T20:01:59.750Z,87.52
2022-11-04T20:04:03.582Z,87.45
2022-11-04T20:06:07.239Z,88.52
2022-11-04T20:08:09.914Z,87.87
2022-11-04T20:10:11.620Z,87.97
2022-11-04T20:12:13.153Z,88.55
2022-11-04T20:14:17.420Z,89.26
2022-11-04T20:16:21.299Z,89.23
2022-11-04T20:18:22.833Z,89.94
2022-11-04T20:20:25.951Z,90.69
2022-11-04T20:22:27.444Z,91.07
2022-11-04T20:24:29.061Z,91.20
2022-11-04T20:26:34.414Z,90.27
2022-11-04T20:28:36.091Z,91.31
2022-11-04T20:30:38.491Z,90.60
2022-11-04T20:32:39.995Z,91.28
2022-11-04T20:34:41.474Z,91.10
2022-11-04T20:36:44.331Z,91.53
2022-11-04T20:38:45.864Z,91.54
2022-11-04T20:40:47.319Z,90.64
2022-11-04T20:42:48.845Z,91.10
2022-11-04T20:44:50.327Z,91.57
2022-11-04T20:46:51.868Z,91.79
2022-11-04T20:48:54.075Z,91.22
2022-11-04T20:50:55.565Z,92.48
2022-11-04T20:52:58.451Z,91.78
2022-11-04T20:54:59.966Z,91.79
2022-11-04T20:57:01.450Z,91.12
2022-11-04T20:59:03.687Z,89.76
2022-11-04T21:01:07.296Z,91.19
2022-11-04T21:03:08.827Z,91.84
2022-11-04T21:05:10.329Z,92.03
2022-11-04T21:07:11.807Z,90.99
2022-11-04T21:09:16.211Z,90.34
2022-11-04T21:11:18.295Z,90.31
2022-11-04T21:13:20.080Z,89.83
2022-11-04T21:15:21.585Z,90.25
2022-11-04T21:17:23.053Z,90.63
2022-11-04T21:19:24.519Z,89.64
2022-11-04T21:21:26.601Z,89.38
2022-11-04T21:23:28.083Z,89.30
2022-11-04T21:25:30.927Z,90.03
2022-11-04T21:27:32.437Z,90.43
2022-11-04T21:29:33.989Z,89.92
2022-11-04T21:31:36.536Z,89.65
2022-11-04T21:33:38.133Z,89.67
2022-11-04T21:35:41.288Z,90.16
2022-11-04T21:37:42.770Z,89.95
2022-11-04T21:39:44.228Z,89.85
2022-11-04T21:41:47.085Z,89.52
2022-11-04T21:43:52.890Z,89.29
2022-11-04T21:46:01.222Z,88.22
2022-11-04T21:48:02.948Z,89.20
2022-11-04T21:50:05.336Z,89.91
2022-11-04T21:52:07.362Z,88.98
2022-11-04T21:54:08.882Z,89.06
2022-11-04T21:56:12.602Z,89.69
2022-11-04T21:58:15.428Z,89.70
2022-11-04T22:00:17.268Z,89.30
2022-11-04T22:02:18.939Z,90.07
2022-11-04T22:04:21.572Z,89.56
2022-11-04T22:06:23.239Z,89.98
2022-11-04T22:08:25.167Z,90.20
2022-11-04T22:10:27.667Z,90.68
2022-11-04T22:12:29.859Z,90.05
2022-11-04T22:14:32.730Z,90.57
2022-11-04T22:16:36.299Z,90.79
2022-11-04T22:18:37.842Z,90.92
2022-11-04T22:20:39.316Z,90.44
2022-11-04T22:22:40.776Z,90.64
2022-11-04T22:24:42.297Z,91.50
2022-11-04T22:26:43.924Z,91.08
2022-11-04T22:28:45.782Z,91.20
2022-11-04T22:30:48.630Z,90.93
2022-11-04T22:32:51.050Z,90.00
2022-11-04T22:34:52.497Z,89.95
2022-11-04T22:36:53.977Z,90.18
2022-11-04T22:38:55.898Z,90.08
2022-11-04T22:40:59.216Z,89.43
2022-11-04T22:43:00.752Z,88.97
2022-11-04T22:45:02.271Z,89.02
2022-11-04T22:47:05.192Z,89.16
2022-11-04T22:49:07.022Z,89.03
2022-11-04T22:51:09.472Z,88.65
2022-11-04T22:53:11.410Z,89.04
2022-11-04T22:55:13.183Z,89.54
2022-11-04T22:57:14.660Z,89.55
2022-11-04T22:59:16.155Z,89.72
2022-11-04T23:01:17.808Z,89.30
2022-11-04T23:03:20.917Z,89.74
2022-11-04T23:05:22.533Z,89.90
2022-11-04T23:07:24.037Z,90.02
2022-11-04T23:09:25.527Z,90.30
2022-11-04T23:11:27.563Z,90.29
2022-11-04T23:13:29.077Z,89.79
2022-11-04T23:15:30.552Z,89.90
2022-11-04T23:17:32.581Z,89.77
2022-11-04T23:19:35.751Z,89.65
2022-11-04T23:21:37.228Z,89.56
2022-11-04T23:23:38.763Z,89.59
2022-11-04T23:25:40.393Z,90.33
2022-11-04T23:27:44.231Z,89.95
2022-11-04T23:29:45.691Z,90.12
2022-11-04T23:31:47.184Z,90.30
2022-11-04T23:33:48.712Z,90.19
2022-11-04T23:35:51.536Z,90.34
2022-11-04T23:37:56.940Z,90.83
2022-11-04T23:39:58.455Z,90.40
2022-11-04T23:41:59.924Z,90.39
2022-11-04T23:44:01.404Z,91.67
2022-11-04T23:46:03.016Z,91.23
2022-11-04T23:48:04.989Z,91.39
2022-11-04T23:50:08.142Z,91.81
2022-11-04T23:52:10.977Z,91.17
2022-11-04T23:54:12.480Z,91.23
2022-11-04T23:56:14.211Z,91.60
2022-11-04T23:58:15.700Z,92.12
